createdAt,value
2022-10-23T00:00:16.651Z,98827.06
2022-10-23T00:00:33.296Z,98826.22
2022-10-23T00:00:53.024Z,98818.00
2022-10-23T00:01:29.539Z,98827.72
2022-10-23T00:01:48.766Z,98817.75
2022-10-23T00:02:04.362Z,98825.03
2022-10-23T00:02:20.656Z,98818.88
2022-10-23T00:02:34.218Z,98831.31
2022-10-23T00:02:56.678Z,98821.69
2022-10-23T00:03:17.370Z,98827.03
2022-10-23T00:03:47.307Z,98824.28
2022-10-23T00:04:15.847Z,98821.31
2022-10-23T00:04:31.368Z,98827.44
2022-10-23T00:04:46.686Z,98829.41
2022-10-23T00:04:59.750Z,98834.50
2022-10-23T00:05:20.390Z,98834.87
2022-10-23T00:05:33.894Z,98836.59
2022-10-23T00:05:46.795Z,98829.59
2022-10-23T00:05:59.903Z,98830.38
2022-10-23T00:06:18.025Z,98828.59
2022-10-23T00:06:32.677Z,98830.25
2022-10-23T00:06:45.889Z,98825.88
2022-10-23T00:07:01.624Z,98835.75
2022-10-23T00:07:41.830Z,98832.09
2022-10-23T00:07:59.139Z,98824.09
2022-10-23T00:08:19.996Z,98834.63
2022-10-23T00:08:33.227Z,98826.69
2022-10-23T00:08:47.070Z,98824.91
2022-10-23T00:09:00.873Z,98827.63
2022-10-23T00:09:20.499Z,98834.63
2022-10-23T00:09:36.772Z,98828.47
2022-10-23T00:10:00.048Z,98828.59
2022-10-23T00:10:13.199Z,98838.22
2022-10-23T00:10:26.584Z,98827.63
2022-10-23T00:10:45.301Z,98834.56
2022-10-23T00:11:01.353Z,98831.19
2022-10-23T00:11:16.179Z,98833.78
2022-10-23T00:11:30.091Z,98826.63
2022-10-23T00:11:52.890Z,98830.97
2022-10-23T00:12:08.475Z,98829.97
2022-10-23T00:12:24.480Z,98827.41
2022-10-23T00:12:39.371Z,98829.22
2022-10-23T00:12:57.134Z,98828.25
2022-10-23T00:13:12.636Z,98834.41
2022-10-23T00:13:25.940Z,98820.97
2022-10-23T00:13:39.267Z,98831.56
2022-10-23T00:13:53.811Z,98833.41
2022-10-23T00:14:07.543Z,98836.13
2022-10-23T00:14:22.523Z,98836.22
2022-10-23T00:14:38.377Z,98833.78
2022-10-23T00:14:59.336Z,98832.72
2022-10-23T00:15:15.494Z,98834.41
2022-10-23T00:15:32.001Z,98826.53
2022-10-23T00:15:45.335Z,98831.69
2022-10-23T00:15:58.472Z,98832.72
2022-10-23T00:16:11.907Z,98834.41
2022-10-23T00:16:27.812Z,98832.59
2022-10-23T00:16:50.420Z,98832.56
2022-10-23T00:17:06.450Z,98837.78
2022-10-23T00:17:19.666Z,98837.66
2022-10-23T00:17:35.226Z,98834.94
2022-10-23T00:17:50.121Z,98840.16
2022-10-23T00:18:04.281Z,98837.59
2022-10-23T00:18:20.720Z,98838.44
2022-10-23T00:18:37.349Z,98842.81
2022-10-23T00:18:58.164Z,98837.66
2022-10-23T00:19:11.452Z,98847.41
2022-10-23T00:19:27.387Z,98842.22
2022-10-23T00:19:40.805Z,98836.19
2022-10-23T00:19:56.725Z,98845.84
2022-10-23T00:20:13.207Z,98844.94
2022-10-23T00:20:31.252Z,98840.38
2022-10-23T00:20:46.658Z,98844.88
2022-10-23T00:20:59.935Z,98847.41
2022-10-23T00:21:13.915Z,98846.53
2022-10-23T00:21:27.646Z,98847.53
2022-10-23T00:21:40.879Z,98850.22
2022-10-23T00:21:53.967Z,98849.31
2022-10-23T00:22:14.386Z,98848.56
2022-10-23T00:22:27.766Z,98850.22
2022-10-23T00:22:40.980Z,98850.09
2022-10-23T00:22:59.619Z,98853.69
2022-10-23T00:23:20.708Z,98852.88
2022-10-23T00:23:34.176Z,98853.69
2022-10-23T00:23:57.893Z,98857.31
2022-10-23T00:24:11.280Z,98854.53
2022-10-23T00:24:32.949Z,98850.16
2022-10-23T00:25:09.900Z,98850.97
2022-10-23T00:25:39.879Z,98848.16
2022-10-23T00:25:53.249Z,98854.53
2022-10-23T00:26:09.243Z,98854.53
2022-10-23T00:26:23.807Z,98855.59
2022-10-23T00:26:38.526Z,98853.88
2022-10-23T00:26:54.581Z,98856.50
2022-10-23T00:27:13.415Z,98855.63
2022-10-23T00:27:26.545Z,98856.50
2022-10-23T00:27:45.698Z,98849.38
2022-10-23T00:27:58.882Z,98855.47
2022-10-23T00:28:13.752Z,98852.94
2022-10-23T00:28:27.174Z,98854.53
2022-10-23T00:28:42.938Z,98859.09
2022-10-23T00:28:56.275Z,98860.81
2022-10-23T00:29:09.593Z,98860.81
2022-10-23T00:29:22.804Z,98852.94
2022-10-23T00:29:38.871Z,98857.37
2022-10-23T00:29:56.036Z,98857.41
2022-10-23T00:30:09.583Z,98854.66
2022-10-23T00:30:23.091Z,98861.69
2022-10-23T00:30:41.907Z,98861.62
2022-10-23T00:30:55.151Z,98863.41
2022-10-23T00:31:09.278Z,98858.13
2022-10-23T00:31:22.809Z,98858.31
2022-10-23T00:31:35.899Z,98860.91
2022-10-23T00:31:48.926Z,98860.88
2022-10-23T00:32:02.028Z,98857.31
2022-10-23T00:32:15.120Z,98865.31
2022-10-23T00:32:45.508Z,98860.88
2022-10-23T00:32:58.675Z,98863.47
2022-10-23T00:33:11.841Z,98858.25
2022-10-23T00:33:27.989Z,98870.66
2022-10-23T00:33:41.179Z,98862.66
2022-10-23T00:33:55.824Z,98873.44
2022-10-23T00:34:09.157Z,98866.31
2022-10-23T00:34:22.253Z,98868.00
2022-10-23T00:34:37.605Z,98864.41
2022-10-23T00:34:53.251Z,98864.47
2022-10-23T00:35:07.258Z,98866.19
2022-10-23T00:35:20.306Z,98867.97
2022-10-23T00:35:33.304Z,98869.69
2022-10-23T00:35:46.470Z,98870.56
2022-10-23T00:35:59.600Z,98869.69
2022-10-23T00:36:16.489Z,98874.25
2022-10-23T00:36:29.950Z,98864.63
2022-10-23T00:36:46.634Z,98865.69
2022-10-23T00:37:00.142Z,98859.56
2022-10-23T00:37:13.649Z,98865.78
2022-10-23T00:37:27.497Z,98864.75
2022-10-23T00:37:40.962Z,98868.16
2022-10-23T00:37:59.015Z,98870.66
2022-10-23T00:38:17.033Z,98869.75
2022-10-23T00:38:34.025Z,98872.44
2022-10-23T00:38:47.839Z,98870.78
2022-10-23T00:39:03.716Z,98872.69
2022-10-23T00:39:21.336Z,98872.75
2022-10-23T00:39:39.837Z,98869.12
2022-10-23T00:39:53.188Z,98870.00
2022-10-23T00:40:10.464Z,98881.56
2022-10-23T00:40:29.295Z,98876.22
2022-10-23T00:40:44.616Z,98878.75
2022-10-23T00:41:02.932Z,98880.47
2022-10-23T00:41:24.164Z,98883.03
2022-10-23T00:41:38.011Z,98880.37
2022-10-23T00:41:54.418Z,98876.91
2022-10-23T00:42:07.523Z,98884.91
2022-10-23T00:42:29.259Z,98886.13
2022-10-23T00:42:42.935Z,98885.12
2022-10-23T00:42:56.454Z,98876.28
2022-10-23T00:43:23.738Z,98876.28
2022-10-23T00:43:59.068Z,98872.75
2022-10-23T00:44:20.327Z,98882.38
2022-10-23T00:44:33.434Z,98886.81
2022-10-23T00:45:27.266Z,98887.06
2022-10-23T00:45:43.095Z,98885.12
2022-10-23T00:45:56.890Z,98885.03
2022-10-23T00:46:10.268Z,98891.19
2022-10-23T00:46:23.689Z,98887.56
2022-10-23T00:46:38.409Z,98884.03
2022-10-23T00:46:51.821Z,98884.97
2022-10-23T00:47:05.845Z,98885.03
2022-10-23T00:47:25.344Z,98890.25
2022-10-23T00:47:39.072Z,98878.81
2022-10-23T00:47:54.339Z,98879.72
2022-10-23T00:48:10.512Z,98885.88
2022-10-23T00:48:23.852Z,98883.41
2022-10-23T00:48:37.524Z,98886.06
2022-10-23T00:49:20.926Z,98881.69
2022-10-23T00:49:34.638Z,98881.72
2022-10-23T00:49:48.114Z,98881.78
2022-10-23T00:50:02.025Z,98882.63
2022-10-23T00:50:18.822Z,98881.56
2022-10-23T00:50:36.154Z,98889.50
2022-10-23T00:50:49.575Z,98884.28
2022-10-23T00:51:28.004Z,98886.81
2022-10-23T00:51:46.380Z,98886.88
2022-10-23T00:52:38.041Z,98878.00
2022-10-23T00:52:52.566Z,98890.31
2022-10-23T00:53:41.365Z,98884.16
2022-10-23T00:54:06.570Z,98886.88
2022-10-23T00:54:34.986Z,98890.50
2022-10-23T00:54:48.675Z,98885.94
2022-10-23T00:55:02.460Z,98887.78
2022-10-23T00:55:17.201Z,98886.88
2022-10-23T00:56:03.304Z,98886.75
2022-10-23T00:56:16.754Z,98899.06
2022-10-23T00:56:35.254Z,98896.72
2022-10-23T00:56:48.466Z,98886.97
2022-10-23T00:57:05.856Z,98897.53
2022-10-23T00:57:19.279Z,98886.97
2022-10-23T00:57:59.888Z,98893.88
2022-10-23T00:58:22.036Z,98893.09
2022-10-23T00:58:36.413Z,98890.56
2022-10-23T00:58:49.433Z,98890.56
2022-10-23T00:59:02.411Z,98894.16
2022-10-23T00:59:16.210Z,98888.00
2022-10-23T01:00:40.496Z,98889.91
2022-10-23T01:00:55.673Z,98892.75
2022-10-23T01:01:17.574Z,98893.34
2022-10-23T01:01:57.866Z,98892.28
2022-10-23T01:02:15.437Z,98889.50
2022-10-23T01:02:36.311Z,98888.72
2022-10-23T01:02:50.092Z,98890.38
2022-10-23T01:03:07.793Z,98894.00
2022-10-23T01:03:49.661Z,98899.19
2022-10-23T01:04:03.579Z,98895.63
2022-10-23T01:04:17.126Z,98892.91
2022-10-23T01:04:57.324Z,98895.50
2022-10-23T01:05:11.144Z,98896.41
2022-10-23T01:07:13.325Z,98898.44
2022-10-23T01:07:37.007Z,98899.31
2022-10-23T01:08:42.043Z,98894.09
2022-10-23T01:09:13.624Z,98897.66
2022-10-23T01:09:31.822Z,98897.34
2022-10-23T01:09:53.934Z,98905.97
2022-10-23T01:10:29.812Z,98901.34
2022-10-23T01:11:28.737Z,98910.59
2022-10-23T01:12:01.676Z,98909.03
2022-10-23T01:12:39.711Z,98914.41
2022-10-23T01:13:04.054Z,98907.56
2022-10-23T01:13:43.811Z,98907.69
2022-10-23T01:45:16.222Z,98908.84
2022-10-23T01:45:52.747Z,98908.84
2022-10-23T01:46:37.552Z,98911.25
2022-10-23T01:47:10.606Z,98914.62
2022-10-23T01:47:47.469Z,98910.31
2022-10-23T01:48:24.760Z,98914.00
2022-10-23T01:48:58.656Z,98909.94
2022-10-23T01:49:35.321Z,98911.59
2022-10-23T01:50:11.351Z,98913.44
2022-10-23T01:50:44.204Z,98913.38
2022-10-23T01:51:17.464Z,98912.47
2022-10-23T01:51:53.940Z,98912.34
2022-10-23T01:52:30.592Z,98915.09
2022-10-23T01:53:31.405Z,98917.03
2022-10-23T01:54:07.484Z,98915.41
2022-10-23T01:54:21.445Z,98910.97
2022-10-23T01:55:00.898Z,98912.66
2022-10-23T01:55:33.785Z,98909.94
2022-10-23T01:56:14.239Z,98914.28
2022-10-23T01:56:51.583Z,98908.94
2022-10-23T01:57:24.521Z,98912.81
2022-10-23T01:57:57.358Z,98913.56
2022-10-23T02:23:15.171Z,98902.09
2022-10-23T02:23:57.994Z,98902.09
2022-10-23T02:24:46.366Z,98903.63
2022-10-23T02:25:30.794Z,98903.63
2022-10-23T02:26:39.335Z,98906.25
2022-10-23T02:27:14.119Z,98910.56
2022-10-23T02:27:52.137Z,98908.72
2022-10-23T02:28:28.458Z,98906.09
2022-10-23T02:29:34.564Z,98907.00
2022-10-23T02:29:53.886Z,98914.88
2022-10-23T02:30:26.644Z,98910.56
2022-10-23T02:30:59.658Z,98914.13
2022-10-23T02:31:34.438Z,98912.25
2022-10-23T02:32:11.305Z,98913.91
2022-10-23T02:32:45.731Z,98910.28
2022-10-23T02:33:18.428Z,98913.72
2022-10-23T02:33:52.156Z,98917.59
2022-10-23T02:34:05.572Z,98920.00
2022-10-23T02:34:46.301Z,98916.38
2022-10-23T02:35:23.321Z,98920.84
2022-10-23T02:35:56.113Z,98917.47
2022-10-23T02:36:09.369Z,98923.34
2022-10-23T02:36:26.133Z,98919.81
2022-10-23T02:36:41.048Z,98921.59
2022-10-23T02:37:14.026Z,98919.88
2022-10-23T02:37:54.528Z,98920.00
2022-10-23T02:38:28.451Z,98919.03
2022-10-23T02:39:01.412Z,98919.13
2022-10-23T02:39:14.310Z,98919.25
2022-10-23T02:39:48.262Z,98924.50
2022-10-23T02:40:21.052Z,98923.50
2022-10-23T02:40:40.750Z,98923.34
2022-10-23T02:41:08.583Z,98924.19
2022-10-23T02:41:47.726Z,98925.94
2022-10-23T02:42:30.509Z,98920.84
2022-10-23T02:43:11.268Z,98925.19
2022-10-23T02:43:59.990Z,98929.91
2022-10-23T02:45:05.605Z,98925.41
2022-10-23T02:45:50.941Z,98928.97
2022-10-23T02:46:28.859Z,98930.88
2022-10-23T02:47:13.654Z,98934.31
2022-10-23T02:48:04.347Z,98935.19
2022-10-23T02:48:43.312Z,98938.06
2022-10-23T02:49:19.695Z,98927.47
2022-10-23T02:49:54.046Z,98925.63
2022-10-23T03:07:39.096Z,98947.38
2022-10-23T03:08:30.778Z,98948.31
2022-10-23T03:09:07.893Z,98944.75
2022-10-23T03:09:21.465Z,98948.34
2022-10-23T03:09:55.194Z,98951.88
2022-10-23T03:10:12.831Z,98946.75
2022-10-23T03:10:46.574Z,98952.22
2022-10-23T03:11:19.387Z,98948.69
2022-10-23T03:11:52.345Z,98952.91
2022-10-23T03:30:10.243Z,98955.84
2022-10-23T03:31:09.950Z,98955.50
2022-10-23T03:52:46.381Z,98983.06
2022-10-23T03:53:45.116Z,98978.44
2022-10-23T03:54:19.992Z,98982.59
2022-10-23T03:54:33.898Z,98978.19
2022-10-23T03:55:07.205Z,98976.72
2022-10-23T03:55:40.028Z,98978.06
2022-10-23T03:56:13.434Z,98977.25
2022-10-23T03:56:26.350Z,98973.00
2022-10-23T03:56:40.238Z,98980.06
2022-10-23T03:57:01.265Z,98977.38
2022-10-23T03:57:34.247Z,98974.44
2022-10-23T04:11:13.036Z,98980.22
2022-10-23T04:39:13.237Z,98959.16
2022-10-23T04:39:48.167Z,98961.75
2022-10-23T04:40:55.480Z,98962.78
2022-10-23T04:52:00.007Z,98967.81
2022-10-23T04:52:32.792Z,98970.66
2022-10-23T04:53:05.613Z,98962.44
2022-10-23T04:53:35.117Z,98968.34
2022-10-23T04:53:50.202Z,98969.16
2022-10-23T05:18:19.172Z,98981.03
2022-10-23T05:18:55.058Z,98983.56
2022-10-23T05:33:58.797Z,98974.66
2022-10-23T05:34:31.958Z,98979.81
2022-10-23T05:58:55.441Z,98992.22
2022-10-23T05:59:33.977Z,98994.63
2022-10-23T06:00:12.263Z,98997.34
2022-10-23T06:01:48.822Z,99003.00
2022-10-23T06:02:27.101Z,99003.44
2022-10-23T06:14:06.755Z,99009.75
2022-10-23T06:42:26.598Z,99042.84
2022-10-23T06:43:01.410Z,99041.78
2022-10-23T06:43:31.276Z,99040.63
2022-10-23T06:44:31.818Z,99042.47
2022-10-23T06:45:40.106Z,99043.81
2022-10-23T06:47:33.625Z,99048.09
2022-10-23T06:48:33.274Z,99044.28
2022-10-23T06:49:07.793Z,99047.16
2022-10-23T06:49:29.383Z,99047.97
2022-10-23T06:50:04.449Z,99044.28
2022-10-23T06:50:38.399Z,99046.84
2022-10-23T06:51:39.559Z,99036.97
2022-10-23T06:51:53.641Z,99044.00
2022-10-23T06:52:45.912Z,99032.59
2022-10-23T06:52:59.342Z,99038.03
2022-10-23T06:53:12.731Z,99044.19
2022-10-23T06:54:18.732Z,99042.56
2022-10-23T06:54:51.692Z,99043.44
2022-10-23T06:55:54.593Z,99041.81
2022-10-23T07:17:51.053Z,99119.69
2022-10-23T07:18:05.536Z,99119.69
2022-10-23T07:18:19.526Z,99122.69
2022-10-23T07:18:32.357Z,99116.63
2022-10-23T07:18:45.707Z,99112.53
2022-10-23T07:18:59.666Z,99118.97
2022-10-23T07:19:31.367Z,99125.69
2022-10-23T07:19:44.141Z,99126.97
2022-10-23T07:19:56.933Z,99130.00
2022-10-23T07:20:09.834Z,99129.47
2022-10-23T07:20:22.623Z,99123.00
2022-10-23T07:21:42.900Z,99110.34
2022-10-23T07:21:57.825Z,99110.34
2022-10-23T07:22:13.339Z,99119.81
2022-10-23T07:22:29.117Z,99110.56
2022-10-23T07:22:42.230Z,99116.44
2022-10-23T07:23:01.552Z,99119.88
2022-10-23T07:23:16.276Z,99115.94
2022-10-23T07:23:29.283Z,99119.53
2022-10-23T07:23:42.333Z,99118.72
2022-10-23T07:23:55.622Z,99109.13
2022-10-23T07:24:28.430Z,99110.31
2022-10-23T07:24:41.453Z,99114.69
2022-10-23T07:24:54.313Z,99109.75
2022-10-23T07:25:07.493Z,99109.09
2022-10-23T07:25:24.123Z,99120.88
2022-10-23T07:25:37.762Z,99117.31
2022-10-23T07:25:50.700Z,99111.41
2022-10-23T07:26:16.891Z,99117.91
2022-10-23T07:26:29.776Z,99114.34
2022-10-23T07:26:44.240Z,99116.28
2022-10-23T07:26:58.312Z,99115.69
2022-10-23T07:27:11.158Z,99115.00
2022-10-23T07:27:42.819Z,99119.56
2022-10-23T07:27:56.593Z,99112.66
2022-10-23T07:28:09.435Z,99108.59
2022-10-23T07:28:22.282Z,99111.56
2022-10-23T07:28:35.294Z,99121.69
2022-10-23T07:28:48.817Z,99116.84
2022-10-23T07:29:02.649Z,99116.22
2022-10-23T07:29:16.784Z,99111.22
2022-10-23T07:29:30.247Z,99113.34
2022-10-23T07:29:43.772Z,99110.13
2022-10-23T07:29:56.605Z,99111.53
2022-10-23T07:30:10.057Z,99111.13
2022-10-23T07:30:22.919Z,99111.56
2022-10-23T07:30:36.185Z,99115.63
2022-10-23T07:30:59.354Z,99111.66
2022-10-23T07:31:12.707Z,99113.59
2022-10-23T07:31:28.080Z,99110.50
2022-10-23T07:31:41.284Z,99112.72
2022-10-23T07:31:54.104Z,99109.63
2022-10-23T07:32:07.554Z,99104.75
2022-10-23T07:32:40.287Z,99116.78
2022-10-23T07:32:53.529Z,99107.84
2022-10-23T07:33:24.781Z,99113.72
2022-10-23T07:33:37.732Z,99110.16
2022-10-23T07:33:50.796Z,99111.44
2022-10-23T07:34:47.113Z,99111.09
2022-10-23T07:35:00.494Z,99110.25
2022-10-23T07:35:33.063Z,99109.44
2022-10-23T07:35:50.025Z,99107.25
2022-10-23T07:36:07.294Z,99109.50
2022-10-23T07:36:20.114Z,99109.97
2022-10-23T07:36:32.920Z,99114.06
2022-10-23T07:36:49.659Z,99110.50
2022-10-23T07:37:02.712Z,99108.09
2022-10-23T07:37:33.456Z,99109.59
2022-10-23T07:37:46.420Z,99107.16
2022-10-23T07:38:01.856Z,99104.13
2022-10-23T07:38:14.675Z,99109.25
2022-10-23T07:38:27.915Z,99106.44
2022-10-23T07:38:40.953Z,99108.69
2022-10-23T07:38:53.954Z,99102.06
2022-10-23T07:39:09.442Z,99105.50
2022-10-23T07:39:22.536Z,99107.84
2022-10-23T07:39:35.364Z,99112.13
2022-10-23T07:39:48.159Z,99108.69
2022-10-23T07:40:01.531Z,99100.50
2022-10-23T07:40:14.409Z,99115.09
2022-10-23T07:40:27.320Z,99108.72
2022-10-23T07:40:40.121Z,99101.13
2022-10-23T07:40:53.739Z,99107.97
2022-10-23T07:41:08.931Z,99104.28
2022-10-23T07:41:24.552Z,99107.53
2022-10-23T07:41:37.931Z,99104.59
2022-10-23T07:41:51.170Z,99104.34
2022-10-23T07:42:04.133Z,99104.97
2022-10-23T07:42:25.052Z,99100.19
2022-10-23T07:42:38.908Z,99101.41
2022-10-23T07:42:51.705Z,99101.28
2022-10-23T07:43:05.042Z,99102.88
2022-10-23T07:43:18.733Z,99105.06
2022-10-23T07:43:45.625Z,99100.16
2022-10-23T07:44:00.576Z,99098.34
2022-10-23T07:44:13.398Z,99101.63
2022-10-23T07:44:28.467Z,99108.87
2022-10-23T07:44:41.529Z,99101.28
2022-10-23T07:45:14.248Z,99098.44
2022-10-23T07:45:27.081Z,99097.06
2022-10-23T07:45:39.892Z,99097.81
2022-10-23T07:45:53.110Z,99100.50
2022-10-23T07:46:05.996Z,99098.44
2022-10-23T07:46:18.792Z,99102.00
2022-10-23T07:46:32.070Z,99102.00
2022-10-23T07:46:44.882Z,99091.94
2022-10-23T07:46:57.689Z,99104.31
2022-10-23T07:47:10.872Z,99098.91
2022-10-23T07:47:23.773Z,99102.19
2022-10-23T07:47:36.577Z,99101.47
2022-10-23T07:47:52.262Z,99103.06
2022-10-23T07:48:05.959Z,99101.22
2022-10-23T07:48:19.103Z,99105.28
2022-10-23T07:48:32.276Z,99101.59
2022-10-23T07:48:45.181Z,99108.69
2022-10-23T07:48:58.100Z,99102.09
2022-10-23T07:49:11.524Z,99100.13
2022-10-23T07:49:24.324Z,99101.59
2022-10-23T07:49:37.135Z,99099.75
2022-10-23T07:49:50.122Z,99104.75
2022-10-23T07:50:23.039Z,99106.25
2022-10-23T07:50:38.177Z,99105.97
2022-10-23T07:50:51.318Z,99098.88
2022-10-23T07:51:08.449Z,99097.59
2022-10-23T07:51:21.884Z,99099.72
2022-10-23T07:51:34.689Z,99105.97
2022-10-23T07:51:50.551Z,99100.44
2022-10-23T07:52:05.554Z,99100.31
2022-10-23T07:52:18.484Z,99099.06
2022-10-23T07:52:34.973Z,99107.91
2022-10-23T07:52:49.028Z,99104.94
2022-10-23T07:53:02.047Z,99106.28
2022-10-23T07:53:22.433Z,99101.50
2022-10-23T07:53:35.398Z,99107.88
2022-10-23T07:54:09.526Z,99103.19
2022-10-23T07:54:23.204Z,99105.38
2022-10-23T07:54:36.000Z,99102.44
2022-10-23T07:54:57.206Z,99102.53
2022-10-23T07:55:10.057Z,99103.38
2022-10-23T07:55:22.887Z,99096.91
2022-10-23T07:55:35.706Z,99100.44
2022-10-23T07:56:02.366Z,99107.56
2022-10-23T07:56:22.923Z,99107.88
2022-10-23T07:56:35.968Z,99110.47
2022-10-23T07:56:49.161Z,99094.25
2022-10-23T07:57:02.063Z,99099.91
2022-10-23T07:57:34.968Z,99099.78
2022-10-23T07:57:47.864Z,99101.16
2022-10-23T07:58:00.799Z,99097.47
2022-10-23T07:58:13.598Z,99098.31
2022-10-23T07:58:26.843Z,99100.88
2022-10-23T07:58:39.670Z,99097.25
2022-10-23T08:15:26.074Z,99082.81
2022-10-23T08:15:39.171Z,99089.09
2022-10-23T08:15:52.932Z,99087.13
2022-10-23T08:16:05.925Z,99082.25
2022-10-23T08:16:19.111Z,99083.25
2022-10-23T08:16:33.042Z,99086.22
2022-10-23T08:16:46.094Z,99079.06
2022-10-23T08:16:58.953Z,99079.94
2022-10-23T08:17:12.477Z,99083.38
2022-10-23T08:17:27.626Z,99088.66
2022-10-23T08:17:42.070Z,99090.38
2022-10-23T08:17:55.410Z,99087.66
2022-10-23T08:18:28.181Z,99086.81
2022-10-23T08:19:01.127Z,99091.41
2022-10-23T08:19:14.128Z,99087.34
2022-10-23T08:19:48.703Z,99084.06
2022-10-23T08:20:01.512Z,99085.66
2022-10-23T08:20:14.530Z,99085.31
2022-10-23T08:20:27.702Z,99085.56
2022-10-23T08:20:43.969Z,99084.59
2022-10-23T08:21:00.959Z,99087.31
2022-10-23T08:21:13.760Z,99085.81
2022-10-23T08:21:26.752Z,99085.81
2022-10-23T08:21:39.709Z,99091.47
2022-10-23T08:22:13.058Z,99090.09
2022-10-23T08:22:26.090Z,99079.69
2022-10-23T08:22:39.681Z,99085.38
2022-10-23T08:22:53.577Z,99089.28
2022-10-23T08:23:06.947Z,99094.69
2022-10-23T08:23:20.438Z,99091.25
2022-10-23T08:23:56.131Z,99087.47
2022-10-23T08:24:13.413Z,99088.56
2022-10-23T08:24:46.433Z,99103.31
2022-10-23T08:25:01.161Z,99097.31
2022-10-23T08:25:33.568Z,99094.75
2022-10-23T08:25:46.750Z,99098.16
2022-10-23T08:26:00.980Z,99090.28
2022-10-23T08:26:14.206Z,99098.41
2022-10-23T08:26:48.700Z,99092.03
2022-10-23T08:27:01.775Z,99093.03
2022-10-23T08:27:14.780Z,99094.59
2022-10-23T08:27:27.833Z,99087.72
2022-10-23T08:27:41.020Z,99089.69
2022-10-23T08:27:54.236Z,99092.75
2022-10-23T08:28:07.792Z,99093.87
2022-10-23T08:28:20.772Z,99093.37
2022-10-23T08:28:33.748Z,99090.69
2022-10-23T08:28:47.090Z,99093.13
2022-10-23T08:29:00.064Z,99084.44
2022-10-23T08:29:12.926Z,99090.94
2022-10-23T08:29:25.893Z,99090.94
2022-10-23T08:29:38.679Z,99090.09
2022-10-23T08:29:51.495Z,99088.38
2022-10-23T08:30:04.883Z,99090.34
2022-10-23T08:30:37.873Z,99088.00
2022-10-23T08:31:13.415Z,99084.81
2022-10-23T08:31:46.192Z,99081.75
2022-10-23T08:31:59.423Z,99088.41
2022-10-23T08:32:12.250Z,99086.81
2022-10-23T08:32:45.142Z,99099.44
2022-10-23T08:32:58.042Z,99092.81
2022-10-23T08:33:14.837Z,99084.47
2022-10-23T08:33:27.823Z,99090.50
2022-10-23T08:33:41.053Z,99087.78
2022-10-23T08:33:54.129Z,99090.97
2022-10-23T08:34:07.040Z,99087.66
2022-10-23T08:34:21.052Z,99087.66
2022-10-23T08:34:34.020Z,99088.66
2022-10-23T08:35:07.209Z,99089.62
2022-10-23T08:35:20.237Z,99092.34
2022-10-23T08:35:37.746Z,99084.59
2022-10-23T08:35:50.777Z,99084.84
2022-10-23T08:36:04.355Z,99086.22
2022-10-23T08:36:25.243Z,99090.97
2022-10-23T08:36:39.441Z,99085.69
2022-10-23T08:37:12.176Z,99092.94
2022-10-23T08:37:25.075Z,99096.50
2022-10-23T08:37:38.060Z,99087.53
2022-10-23T08:38:10.333Z,99087.41
2022-10-23T08:38:41.869Z,99086.09
2022-10-23T08:38:56.019Z,99089.25
2022-10-23T08:39:28.933Z,99093.53
2022-10-23T08:39:41.760Z,99091.81
2022-10-23T08:39:56.047Z,99089.13
2022-10-23T08:40:19.397Z,99093.06
2022-10-23T08:40:32.331Z,99088.06
2022-10-23T08:40:48.800Z,99094.75
2022-10-23T08:41:02.797Z,99090.56
2022-10-23T08:41:29.350Z,99088.50
2022-10-23T08:41:43.386Z,99095.72
2022-10-23T08:41:56.386Z,99086.91
2022-10-23T08:42:23.396Z,99091.31
2022-10-23T08:42:37.272Z,99087.16
2022-10-23T08:43:01.716Z,99087.88
2022-10-23T08:43:28.797Z,99087.50
2022-10-23T08:43:47.186Z,99092.03
2022-10-23T08:44:05.150Z,99091.44
2022-10-23T08:44:45.908Z,99091.91
2022-10-23T08:45:20.439Z,99093.53
2022-10-23T08:45:36.492Z,99096.22
2022-10-23T08:46:16.177Z,99089.09
2022-10-23T08:46:31.688Z,99096.44
2022-10-23T08:46:46.593Z,99094.72
2022-10-23T08:47:06.541Z,99094.97
2022-10-23T08:47:44.511Z,99090.31
2022-10-23T08:48:00.184Z,99092.03
2022-10-23T08:48:25.554Z,99086.87
2022-10-23T08:48:43.418Z,99093.13
2022-10-23T08:49:05.698Z,99091.44
2022-10-23T08:49:47.535Z,99089.59
2022-10-23T08:50:25.515Z,99082.81
2022-10-23T08:50:43.099Z,99090.81
2022-10-23T08:51:01.172Z,99087.00
2022-10-23T08:51:18.693Z,99088.84
2022-10-23T08:51:38.289Z,99089.56
2022-10-23T08:51:53.633Z,99091.16
2022-10-23T08:52:37.380Z,99087.00
2022-10-23T08:53:07.110Z,99084.78
2022-10-23T08:53:54.871Z,99083.56
2022-10-23T08:54:18.940Z,99081.22
2022-10-23T08:54:58.575Z,99079.50
2022-10-23T08:55:34.875Z,99085.13
2022-10-23T08:56:01.889Z,99075.81
2022-10-23T08:56:31.665Z,99081.44
2022-10-23T08:57:08.938Z,99081.56
2022-10-23T08:57:22.604Z,99081.31
2022-10-23T08:57:41.321Z,99079.47
2022-10-23T08:57:59.447Z,99079.84
2022-10-23T08:58:29.528Z,99080.22
2022-10-23T08:58:47.185Z,99075.91
2022-10-23T08:59:20.161Z,99081.69
2022-10-23T09:00:00.689Z,99080.09
2022-10-23T09:00:21.864Z,99075.69
2022-10-23T09:00:35.084Z,99081.69
2022-10-23T09:00:48.445Z,99080.47
2022-10-23T09:01:01.333Z,99083.28
2022-10-23T09:01:36.325Z,99078.63
2022-10-23T09:02:01.747Z,99075.91
2022-10-23T09:02:35.563Z,99074.81
2022-10-23T09:02:50.414Z,99079.75
2022-10-23T09:03:05.619Z,99077.19
2022-10-23T09:03:19.534Z,99080.47
2022-10-23T09:03:32.549Z,99082.06
2022-10-23T09:03:45.360Z,99082.06
2022-10-23T09:03:58.155Z,99079.03
2022-10-23T09:04:12.326Z,99079.03
2022-10-23T09:04:47.868Z,99079.37
2022-10-23T09:05:01.038Z,99084.63
2022-10-23T09:05:18.995Z,99079.03
2022-10-23T09:05:35.232Z,99086.25
2022-10-23T09:06:03.680Z,99080.38
2022-10-23T09:46:12.366Z,99093.56
2022-10-23T09:46:25.566Z,99092.59
2022-10-23T09:46:44.016Z,99098.47
2022-10-23T09:47:06.348Z,99092.47
2022-10-23T09:47:20.905Z,99089.41
2022-10-23T09:47:33.859Z,99088.81
2022-10-23T09:47:46.775Z,99089.28
2022-10-23T09:48:06.660Z,99090.41
2022-10-23T09:48:19.754Z,99094.81
2022-10-23T09:48:33.796Z,99086.97
2022-10-23T09:48:58.266Z,99089.41
2022-10-23T09:49:17.331Z,99091.66
2022-10-23T09:49:31.595Z,99088.34
2022-10-23T09:49:49.211Z,99094.81
2022-10-23T09:50:22.119Z,99092.75
2022-10-23T09:50:35.981Z,99087.66
2022-10-23T09:50:56.528Z,99091.06
2022-10-23T09:51:20.308Z,99094.13
2022-10-23T09:51:33.411Z,99090.28
2022-10-23T09:52:09.917Z,99085.75
2022-10-23T09:52:30.921Z,99092.63
2022-10-23T09:52:43.768Z,99095.53
2022-10-23T09:52:56.919Z,99090.16
2022-10-23T09:53:15.574Z,99089.19
2022-10-23T09:53:37.010Z,99094.13
2022-10-23T09:53:59.181Z,99085.59
2022-10-23T09:54:12.164Z,99094.00
2022-10-23T09:54:25.052Z,99091.44
2022-10-23T09:54:45.857Z,99089.47
2022-10-23T09:55:00.614Z,99094.47
2022-10-23T09:55:31.143Z,99095.72
2022-10-23T09:55:50.220Z,99097.81
2022-10-23T09:56:07.903Z,99095.53
2022-10-23T09:56:24.795Z,99102.44
2022-10-23T09:56:40.663Z,99095.97
2022-10-23T09:56:53.779Z,99100.59
2022-10-23T09:57:19.771Z,99099.84
2022-10-23T09:57:38.274Z,99097.09
2022-10-23T09:57:51.382Z,99091.06
2022-10-23T09:58:04.208Z,99101.25
2022-10-23T09:58:34.478Z,99091.94
2022-10-23T09:59:11.269Z,99099.06
2022-10-23T09:59:28.800Z,99093.19
2022-10-23T09:59:42.021Z,99098.81
2022-10-23T09:59:55.923Z,99103.47
2022-10-23T10:00:14.187Z,99090.12